Time;durP1;ratioP1;P1;durP2;ratioP2;P2;SDS_P1;SDS_P2;PMS_P1;PMS_P2;Temp;Humidity;BMP_temperature;BMP_pressure;BME280_temperature;BME280_humidity;BME280_pressure;Samples;Min_cycle;Max_cycle;Signal;HPM_P1;HPM_P2
2022/07/17 00:00:13;;;;;;;5.10;2.47;;;23.20;78.80;;;;;;5113354;28;20043;-59
2022/07/17 00:02:38;;;;;;;7.80;2.25;;;23.60;80.90;;;;;;5107713;28;20027;-59
2022/07/17 00:05:05;;;;;;;4.90;2.10;;;23.30;84.80;;;;;;5113516;28;20016;-59
2022/07/17 00:07:30;;;;;;;8.05;2.17;;;23.40;84.30;;;;;;5113298;28;20557;-58
2022/07/17 00:09:56;;;;;;;4.00;2.03;;;23.30;81.60;;;;;;5113580;28;20016;-58
2022/07/17 00:12:22;;;;;;;5.28;2.15;;;23.50;83.70;;;;;;5113658;28;20028;-58
2022/07/17 00:14:48;;;;;;;3.35;2.20;;;23.30;83.00;;;;;;5112917;28;20102;-58
2022/07/17 00:17:14;;;;;;;4.38;2.10;;;23.50;80.00;;;;;;5113725;28;20055;-58
2022/07/17 00:19:40;;;;;;;4.25;2.10;;;23.10;82.10;;;;;;5113300;28;20549;-59
2022/07/17 00:22:06;;;;;;;4.15;2.00;;;23.00;82.00;;;;;;5112930;28;20023;-59
2022/07/17 00:24:32;;;;;;;2.47;2.10;;;22.80;83.10;;;;;;5113493;28;20031;-58
2022/07/17 00:26:57;;;;;;;10.45;3.13;;;23.20;81.70;;;;;;5113212;28;20098;-58
2022/07/17 00:29:23;;;;;;;4.43;2.50;;;23.30;82.40;;;;;;5113425;28;20415;-59
2022/07/17 00:31:49;;;;;;;4.00;2.00;;;23.10;81.40;;;;;;5113072;28;20361;-59
2022/07/17 00:34:15;;;;;;;4.63;2.10;;;22.80;83.30;;;;;;5113011;28;20117;-58
2022/07/17 00:36:41;;;;;;;4.05;2.00;;;22.70;83.50;;;;;;5112935;28;20055;-59
2022/07/17 00:39:07;;;;;;;4.25;1.80;;;22.60;84.00;;;;;;5110441;28;20396;-59
2022/07/17 00:41:33;;;;;;;4.20;2.03;;;22.60;82.90;;;;;;5109442;28;20032;-58
2022/07/17 00:44:11;;;;;;;8.73;2.40;;;22.60;83.50;;;;;;5106831;28;20034;-58
2022/07/17 00:46:38;;;;;;;13.35;2.72;;;22.90;84.30;;;;;;5112394;28;20024;-58
2022/07/17 00:49:04;;;;;;;7.15;2.33;;;23.20;83.30;;;;;;5112098;28;20035;-59
2022/07/17 00:51:31;;;;;;;3.72;2.33;;;23.10;83.20;;;;;;5093378;28;20488;-59
2022/07/17 00:53:58;;;;;;;5.82;2.10;;;22.50;83.10;;;;;;5113220;28;20055;-59
2022/07/17 00:56:26;;;;;;;6.45;2.30;;;22.40;83.90;;;;;;5112454;28;20015;-60
2022/07/17 00:58:52;;;;;;;5.38;2.25;;;22.20;84.60;;;;;;5094068;28;20478;-59
2022/07/17 01:01:18;;;;;;;6.05;2.00;;;21.80;87.30;;;;;;5112381;28;20016;-60
2022/07/17 01:03:44;;;;;;;2.50;2.05;;;21.70;87.30;;;;;;5112934;28;20515;-59
2022/07/17 01:06:10;;;;;;;6.57;2.00;;;21.50;88.90;;;;;;5112181;28;20077;-59
2022/07/17 01:08:36;;;;;;;11.18;2.17;;;21.40;88.90;;;;;;5112528;28;20060;-59
2022/07/17 01:11:03;;;;;;;6.78;2.10;;;22.10;87.90;;;;;;5112755;28;20034;-59
2022/07/17 01:13:31;;;;;;;4.18;2.15;;;22.20;87.50;;;;;;5112613;28;20024;-59
2022/07/17 01:15:57;;;;;;;4.15;1.88;;;22.30;87.40;;;;;;5112568;28;20011;-60
2022/07/17 01:18:23;;;;;;;4.93;2.20;;;23.20;86.10;;;;;;5112219;28;20829;-60
2022/07/17 01:20:50;;;;;;;4.03;2.33;;;23.50;84.70;;;;;;5112447;28;20411;-58
2022/07/17 01:23:17;;;;;;;6.32;2.80;;;23.10;83.30;;;;;;5112227;28;20055;-59
2022/07/17 01:25:44;;;;;;;4.82;2.30;;;22.60;85.60;;;;;;5111842;28;20055;-59
2022/07/17 01:28:10;;;;;;;3.25;2.17;;;21.70;88.40;;;;;;5112616;28;20020;-59
2022/07/17 01:30:37;;;;;;;5.82;2.40;;;21.40;89.00;;;;;;5093553;28;20417;-59
2022/07/17 01:33:03;;;;;;;4.15;2.80;;;21.50;90.10;;;;;;5112557;28;20024;-59
2022/07/17 01:35:29;;;;;;;5.57;2.88;;;21.50;89.30;;;;;;5111173;28;20047;-58
2022/07/17 01:37:54;;;;;;;3.78;2.22;;;21.50;89.30;;;;;;5111285;28;20594;-59
2022/07/17 01:40:20;;;;;;;2.97;2.00;;;21.10;90.30;;;;;;5111634;28;20071;-58
2022/07/17 01:42:48;;;;;;;3.38;2.35;;;20.90;90.60;;;;;;5116167;27;20057;-58
2022/07/17 01:45:16;;;;;;;3.47;2.35;;;20.70;91.00;;;;;;5114720;27;20023;-58
2022/07/17 01:47:43;;;;;;;4.63;2.20;;;20.60;91.20;;;;;;5111641;28;20531;-59
2022/07/17 01:50:10;;;;;;;3.85;2.15;;;20.40;91.40;;;;;;5118803;27;20020;-58
2022/07/17 01:52:39;;;;;;;3.13;2.00;;;20.40;91.60;;;;;;5115000;27;20024;-58
2022/07/17 01:55:06;;;;;;;2.38;2.13;;;20.40;91.90;;;;;;5116089;27;20027;-59
2022/07/17 01:57:32;;;;;;;5.15;2.03;;;20.20;92.30;;;;;;5117331;27;20020;-58
2022/07/17 01:59:58;;;;;;;5.28;2.42;;;20.10;92.60;;;;;;5111396;28;20039;-59
2022/07/17 02:02:23;;;;;;;3.85;2.20;;;20.00;92.80;;;;;;5111688;28;20015;-59
2022/07/17 02:04:49;;;;;;;4.55;1.90;;;20.00;92.50;;;;;;5114369;28;20491;-58
2022/07/17 02:07:15;;;;;;;3.63;2.20;;;20.00;92.80;;;;;;5119344;27;20020;-58
2022/07/17 02:09:41;;;;;;;2.60;2.15;;;19.90;93.20;;;;;;5118701;28;20147;-58
2022/07/17 02:12:06;;;;;;;4.22;2.05;;;20.90;91.50;;;;;;5118321;28;20020;-58
2022/07/17 02:14:32;;;;;;;4.00;2.00;;;21.50;90.80;;;;;;5118652;28;20165;-58
2022/07/17 02:16:58;;;;;;;3.65;2.22;;;21.20;90.90;;;;;;5118481;28;20054;-59
2022/07/17 02:19:24;;;;;;;3.20;2.30;;;21.10;90.90;;;;;;5117930;28;20115;-59
2022/07/17 02:21:50;;;;;;;1.80;1.70;;;20.60;91.90;;;;;;5118722;28;20020;-59
2022/07/17 02:24:16;;;;;;;3.15;2.55;;;20.50;91.90;;;;;;5118305;27;20490;-59
2022/07/17 02:26:42;;;;;;;5.07;2.38;;;20.10;92.50;;;;;;5119024;28;20039;-59
2022/07/17 02:29:07;;;;;;;2.70;2.17;;;19.80;93.10;;;;;;5118198;28;20191;-57
2022/07/17 02:31:33;;;;;;;4.47;2.28;;;20.00;92.90;;;;;;5118756;28;20085;-58
2022/07/17 02:33:59;;;;;;;2.58;2.17;;;19.70;93.90;;;;;;5118468;28;20487;-58
2022/07/17 02:36:25;;;;;;;3.20;2.30;;;19.50;93.90;;;;;;5118118;28;20043;-58
2022/07/17 02:38:51;;;;;;;4.63;2.20;;;19.60;93.80;;;;;;5117636;28;20434;-59
2022/07/17 02:41:17;;;;;;;5.47;2.50;;;20.00;93.10;;;;;;5118219;28;20456;-58
2022/07/17 02:43:43;;;;;;;3.88;2.20;;;20.10;92.80;;;;;;5118632;28;20218;-59
2022/07/17 02:46:09;;;;;;;3.22;2.03;;;20.10;93.60;;;;;;5118118;28;20016;-59
2022/07/17 02:48:34;;;;;;;3.20;2.20;;;20.30;93.10;;;;;;5117623;28;20020;-58
2022/07/17 02:51:00;;;;;;;2.58;2.13;;;21.20;92.40;;;;;;5118081;28;20020;-57
2022/07/17 02:53:26;;;;;;;3.17;2.00;;;21.50;91.50;;;;;;5117930;28;20061;-58
2022/07/17 02:55:52;;;;;;;3.67;2.40;;;21.50;91.60;;;;;;5118756;28;20084;-59
2022/07/17 02:58:18;;;;;;;3.35;2.03;;;21.60;90.00;;;;;;5125248;27;20027;-59
2022/07/17 03:00:44;;;;;;;3.42;2.10;;;21.20;91.00;;;;;;5118340;28;20552;-58
2022/07/17 03:03:10;;;;;;;2.70;2.15;;;20.60;91.20;;;;;;5119111;27;20548;-58
2022/07/17 03:05:35;;;;;;;5.07;2.03;;;20.50;91.80;;;;;;5117729;28;20050;-58
2022/07/17 03:08:01;;;;;;;3.92;2.30;;;20.60;91.60;;;;;;5118666;28;20012;-58
2022/07/17 03:10:27;;;;;;;2.78;2.05;;;20.50;91.90;;;;;;5117581;28;20437;-58
2022/07/17 03:12:52;;;;;;;2.72;2.10;;;20.20;92.00;;;;;;5117871;28;20034;-58
2022/07/17 03:15:18;;;;;;;2.42;2.05;;;20.40;91.90;;;;;;5117725;28;20027;-58
2022/07/17 03:17:44;;;;;;;3.33;1.95;;;20.50;92.00;;;;;;5113418;28;20019;-58
2022/07/17 03:20:10;;;;;;;2.78;2.05;;;20.30;92.30;;;;;;5114790;28;20073;-58
2022/07/17 03:22:36;;;;;;;3.20;2.13;;;20.30;92.60;;;;;;5114647;28;20016;-59
2022/07/17 03:25:02;;;;;;;6.75;2.63;;;20.20;92.30;;;;;;5114626;28;20506;-58
2022/07/17 03:27:28;;;;;;;3.67;1.98;;;20.30;92.00;;;;;;5114200;28;20046;-58
2022/07/17 03:29:54;;;;;;;3.65;2.13;;;19.90;92.40;;;;;;5119067;27;20108;-59
2022/07/17 03:32:20;;;;;;;2.67;1.83;;;19.90;92.80;;;;;;5116644;27;20100;-58
2022/07/17 03:34:46;;;;;;;4.07;2.10;;;19.70;93.30;;;;;;5122008;27;20027;-59
2022/07/17 03:37:12;;;;;;;5.05;2.20;;;19.70;93.30;;;;;;5113418;28;20184;-57
2022/07/17 03:39:38;;;;;;;3.42;1.98;;;19.70;94.00;;;;;;5116722;27;20377;-58
2022/07/17 03:42:03;;;;;;;3.33;2.13;;;19.40;94.00;;;;;;5113943;28;20023;-58
2022/07/17 03:44:29;;;;;;;5.40;2.25;;;19.40;94.30;;;;;;5114184;28;20030;-59
2022/07/17 03:46:55;;;;;;;2.20;2.00;;;19.40;94.20;;;;;;5114642;27;20023;-58
2022/07/17 03:49:21;;;;;;;3.30;1.90;;;19.50;94.20;;;;;;5114132;28;20553;-58
2022/07/17 03:51:48;;;;;;;4.75;1.95;;;19.90;93.70;;;;;;5113644;28;20035;-58
2022/07/17 03:54:14;;;;;;;4.75;2.10;;;19.80;93.60;;;;;;5113764;28;20028;-58
2022/07/17 03:56:39;;;;;;;4.18;1.95;;;19.90;93.90;;;;;;5113807;28;20023;-59
2022/07/17 03:59:05;;;;;;;3.47;2.20;;;19.60;93.60;;;;;;5113656;28;20070;-59
2022/07/17 04:01:31;;;;;;;2.80;2.00;;;19.60;94.00;;;;;;5113311;28;20035;-59
2022/07/17 04:03:56;;;;;;;3.30;1.83;;;19.40;94.10;;;;;;5113671;27;20110;-59
2022/07/17 04:06:22;;;;;;;3.30;2.05;;;19.60;94.20;;;;;;5113737;28;20404;-58
2022/07/17 04:08:47;;;;;;;2.15;1.88;;;19.80;94.00;;;;;;5113223;28;20127;-58
2022/07/17 04:11:13;;;;;;;3.70;2.20;;;19.60;94.10;;;;;;5112954;28;20024;-59
2022/07/17 04:13:39;;;;;;;5.20;2.30;;;19.40;94.40;;;;;;5113238;28;20035;-58
2022/07/17 04:16:05;;;;;;;3.35;2.05;;;19.60;94.20;;;;;;5112942;28;20114;-58
2022/07/17 04:18:33;;;;;;;3.13;1.75;;;19.70;94.30;;;;;;5113013;28;20027;-59
2022/07/17 04:21:04;;;;;;;2.58;2.00;;;19.80;93.70;;;;;;5113202;28;20016;-59
2022/07/17 04:23:29;;;;;;;3.53;2.17;;;19.80;94.00;;;;;;5113078;28;20038;-59
2022/07/17 04:25:56;;;;;;;3.03;2.20;;;20.00;93.70;;;;;;5112776;28;20020;-59
2022/07/17 04:28:22;;;;;;;2.83;2.00;;;19.80;93.80;;;;;;5112556;28;20028;-59
2022/07/17 04:30:47;;;;;;;5.03;1.90;;;19.90;93.70;;;;;;5112822;28;20019;-59
2022/07/17 04:33:14;;;;;;;3.42;2.17;;;20.20;93.40;;;;;;5112692;28;20020;-58
2022/07/17 04:35:40;;;;;;;3.45;2.13;;;20.20;93.30;;;;;;5113176;28;20043;-58
2022/07/17 04:38:07;;;;;;;3.22;1.75;;;20.10;93.40;;;;;;5119219;27;20027;-58
2022/07/17 04:40:35;;;;;;;4.45;1.95;;;20.10;93.30;;;;;;5112785;27;20511;-58
2022/07/17 04:43:01;;;;;;;4.65;2.00;;;19.90;93.50;;;;;;5112255;28;20495;-59
2022/07/17 04:45:28;;;;;;;3.70;2.00;;;19.90;93.60;;;;;;5111992;28;20109;-59
2022/07/17 04:47:53;;;;;;;3.20;1.80;;;19.80;93.80;;;;;;5112784;28;20011;-59
2022/07/17 04:50:20;;;;;;;4.30;1.95;;;20.10;93.30;;;;;;5112277;28;20452;-58
2022/07/17 04:52:45;;;;;;;2.85;1.90;;;20.00;93.20;;;;;;5107418;28;20047;-59
2022/07/17 04:55:11;;;;;;;4.03;2.13;;;19.90;93.50;;;;;;5107683;28;20050;-58
2022/07/17 04:57:37;;;;;;;4.25;1.88;;;20.10;93.40;;;;;;5110852;28;20087;-58
2022/07/17 05:00:06;;;;;;;4.70;2.03;;;20.20;93.20;;;;;;5112103;28;20036;-58
2022/07/17 05:02:31;;;;;;;2.22;1.70;;;20.30;92.90;;;;;;5112286;28;20027;-59
2022/07/17 05:04:57;;;;;;;2.90;2.17;;;20.40;93.00;;;;;;5112638;28;20027;-59
2022/07/17 05:07:23;;;;;;;3.00;1.95;;;20.50;92.80;;;;;;5093241;28;20028;-58
2022/07/17 05:09:49;;;;;;;6.68;1.98;;;20.60;92.50;;;;;;5112076;28;20076;-58
2022/07/17 05:12:15;;;;;;;7.85;2.10;;;20.50;92.50;;;;;;5110974;28;20031;-58
2022/07/17 05:14:41;;;;;;;5.90;2.03;;;20.60;92.60;;;;;;5113504;27;20032;-58
2022/07/17 05:17:06;;;;;;;5.88;2.15;;;20.70;92.40;;;;;;5112272;28;20024;-59
2022/07/17 05:19:32;;;;;;;7.55;2.75;;;20.90;92.00;;;;;;5112482;28;20100;-58
2022/07/17 05:21:58;;;;;;;7.05;2.65;;;20.70;92.10;;;;;;5112002;28;20054;-59
2022/07/17 05:24:24;;;;;;;7.97;2.05;;;20.80;92.30;;;;;;5111730;28;20038;-58
2022/07/17 05:26:49;;;;;;;6.90;2.38;;;20.90;92.10;;;;;;5111830;28;20064;-58
2022/07/17 05:29:15;;;;;;;5.38;2.05;;;21.30;91.60;;;;;;5110989;28;20035;-58
2022/07/17 05:31:41;;;;;;;3.28;1.95;;;21.30;91.60;;;;;;5111403;28;20032;-58
2022/07/17 05:34:07;;;;;;;3.28;2.30;;;21.20;91.70;;;;;;5112031;28;20035;-59
2022/07/17 05:36:32;;;;;;;3.22;2.33;;;21.40;91.30;;;;;;5112202;28;20043;-59
2022/07/17 05:38:58;;;;;;;4.88;2.20;;;21.50;91.00;;;;;;5118329;27;20059;-60
2022/07/17 05:41:24;;;;;;;5.28;2.15;;;21.50;91.00;;;;;;5110868;28;20488;-59
2022/07/17 05:43:50;;;;;;;3.53;2.00;;;21.50;91.40;;;;;;5076812;28;20047;-59
2022/07/17 05:46:15;;;;;;;3.97;1.95;;;21.60;91.00;;;;;;5109855;28;20030;-58
2022/07/17 05:48:42;;;;;;;4.45;2.13;;;21.60;91.00;;;;;;5111883;28;20452;-59
2022/07/17 05:51:07;;;;;;;4.32;1.92;;;22.20;90.20;;;;;;5112061;28;20065;-59
2022/07/17 05:53:33;;;;;;;7.10;2.10;;;22.00;90.40;;;;;;5111686;28;20536;-58
2022/07/17 05:55:59;;;;;;;4.35;2.17;;;22.20;90.30;;;;;;5111322;28;20405;-58
2022/07/17 05:58:25;;;;;;;4.07;1.90;;;22.50;90.00;;;;;;5111392;28;20399;-58
2022/07/17 06:00:50;;;;;;;7.05;2.33;;;23.20;88.00;;;;;;5112095;28;20042;-59
2022/07/17 06:03:17;;;;;;;2.75;1.90;;;23.20;87.60;;;;;;5111703;28;20030;-59
2022/07/17 06:05:42;;;;;;;7.90;2.10;;;24.20;85.30;;;;;;5111811;28;20388;-59
2022/07/17 06:08:08;;;;;;;4.65;1.83;;;24.80;84.90;;;;;;5111494;28;20020;-59
2022/07/17 06:10:34;;;;;;;7.03;1.80;;;25.30;82.40;;;;;;5111317;28;20035;-59
2022/07/17 06:13:00;;;;;;;3.78;2.00;;;25.60;82.20;;;;;;5111600;28;20028;-59
2022/07/17 06:15:26;;;;;;;2.25;1.80;;;25.80;81.10;;;;;;5111936;28;20012;-58
2022/07/17 06:17:52;;;;;;;3.90;1.80;;;26.10;80.30;;;;;;5093686;28;20024;-59
2022/07/17 06:20:19;;;;;;;3.88;1.95;;;25.80;81.00;;;;;;5111102;28;20062;-58
2022/07/17 06:22:45;;;;;;;3.83;2.10;;;26.40;79.50;;;;;;5111449;28;20400;-59
2022/07/17 06:25:11;;;;;;;3.08;1.80;;;26.30;79.40;;;;;;5111165;28;20472;-58
2022/07/17 06:27:41;;;;;;;3.65;2.05;;;26.50;78.80;;;;;;5111886;28;20022;-59
2022/07/17 06:30:10;;;;;;;3.40;2.13;;;26.80;78.30;;;;;;5111074;28;20400;-59
2022/07/17 06:32:36;;;;;;;6.10;2.10;;;27.40;77.30;;;;;;5110887;28;20077;-59
2022/07/17 06:35:01;;;;;;;3.15;1.85;;;26.70;77.90;;;;;;5111473;28;20032;-59
2022/07/17 06:37:27;;;;;;;5.00;2.28;;;26.80;78.20;;;;;;5111457;28;20557;-59
2022/07/17 06:39:53;;;;;;;3.10;2.10;;;27.10;77.60;;;;;;5116926;28;20036;-59
2022/07/17 06:42:18;;;;;;;3.53;2.20;;;27.00;77.60;;;;;;5111260;28;20536;-59
2022/07/17 06:44:44;;;;;;;2.78;1.90;;;27.90;76.60;;;;;;5092493;28;20407;-59
2022/07/17 06:47:10;;;;;;;2.45;2.10;;;28.00;75.10;;;;;;5111737;28;20012;-59
2022/07/17 06:49:35;;;;;;;4.22;2.42;;;28.70;75.10;;;;;;5110824;28;20490;-59
2022/07/17 06:52:01;;;;;;;6.50;2.00;;;28.90;74.40;;;;;;5113789;28;20487;-59
2022/07/17 06:54:27;;;;;;;4.70;2.17;;;28.90;73.80;;;;;;5114651;28;20023;-59
2022/07/17 06:56:53;;;;;;;2.88;2.20;;;27.90;75.10;;;;;;5115088;28;20090;-59
2022/07/17 06:59:20;;;;;;;4.10;1.90;;;28.20;75.00;;;;;;5114863;28;20038;-59
2022/07/17 07:01:45;;;;;;;3.20;2.05;;;28.50;74.50;;;;;;5114919;28;20023;-59
2022/07/17 07:04:11;;;;;;;2.90;1.98;;;29.30;73.30;;;;;;5114801;28;20511;-59
2022/07/17 07:06:37;;;;;;;4.72;1.80;;;29.40;73.20;;;;;;5115410;28;20511;-59
2022/07/17 07:09:03;;;;;;;2.30;1.90;;;29.90;71.90;;;;;;5114421;28;20036;-60
2022/07/17 07:11:29;;;;;;;2.35;2.00;;;30.80;70.40;;;;;;5114614;28;20024;-59
2022/07/17 07:13:55;;;;;;;4.57;1.85;;;30.80;70.50;;;;;;5114999;28;20115;-59
2022/07/17 07:16:20;;;;;;;3.78;1.92;;;30.50;70.50;;;;;;5114974;28;20034;-59
2022/07/17 07:18:47;;;;;;;4.00;2.03;;;31.00;70.30;;;;;;5114721;28;20028;-59
2022/07/17 07:21:13;;;;;;;2.85;1.92;;;31.40;69.30;;;;;;5114455;28;20042;-60
2022/07/17 07:23:38;;;;;;;2.10;1.80;;;31.40;69.10;;;;;;5114142;28;20012;-59
2022/07/17 07:26:04;;;;;;;5.13;2.10;;;32.30;68.10;;;;;;5115065;28;20024;-59
2022/07/17 07:28:30;;;;;;;3.65;2.10;;;32.00;68.20;;;;;;5113769;28;20523;-59
2022/07/17 07:30:56;;;;;;;3.05;1.88;;;32.30;67.20;;;;;;5114567;28;20499;-59
2022/07/17 07:33:21;;;;;;;4.18;1.90;;;32.90;67.10;;;;;;5114310;28;20404;-59
2022/07/17 07:35:47;;;;;;;3.13;2.00;;;33.00;66.50;;;;;;5114156;28;20048;-60
2022/07/17 07:38:13;;;;;;;2.28;1.95;;;32.60;67.20;;;;;;5120553;27;20026;-59
2022/07/17 07:40:39;;;;;;;2.50;1.92;;;32.80;66.60;;;;;;5114196;28;20435;-60
2022/07/17 07:43:04;;;;;;;4.25;2.13;;;32.80;66.20;;;;;;5113481;28;20047;-59
2022/07/17 07:45:31;;;;;;;3.85;1.88;;;32.60;67.10;;;;;;5113923;28;20080;-59
2022/07/17 07:47:57;;;;;;;3.15;1.92;;;32.90;66.00;;;;;;5113770;28;20102;-58
2022/07/17 07:50:26;;;;;;;2.90;2.30;;;33.20;65.80;;;;;;5114279;28;20115;-60
2022/07/17 07:52:52;;;;;;;3.17;2.00;;;32.50;66.90;;;;;;5114132;28;20628;-59
2022/07/17 07:55:18;;;;;;;3.42;2.10;;;32.70;66.50;;;;;;5113890;28;20032;-59
2022/07/17 07:57:44;;;;;;;3.38;2.20;;;33.70;65.30;;;;;;5113772;28;20023;-59
2022/07/17 08:00:11;;;;;;;2.10;1.90;;;33.40;65.60;;;;;;5113971;28;20043;-59
2022/07/17 08:02:37;;;;;;;3.33;1.90;;;33.30;65.80;;;;;;5113468;28;20024;-59
2022/07/17 08:05:04;;;;;;;2.25;2.05;;;34.70;64.80;;;;;;5113256;28;20038;-59
2022/07/17 08:07:30;;;;;;;2.63;2.10;;;35.60;63.60;;;;;;5120256;27;20441;-59
2022/07/17 08:09:57;;;;;;;3.85;2.10;;;35.50;63.10;;;;;;5116994;27;20102;-59
2022/07/17 08:12:23;;;;;;;3.03;2.00;;;36.10;62.90;;;;;;5114496;27;20155;-59
2022/07/17 08:14:49;;;;;;;3.50;2.00;;;36.70;63.20;;;;;;5095600;28;20024;-60
2022/07/17 08:17:15;;;;;;;3.70;2.35;;;35.80;63.00;;;;;;5113459;28;20472;-59
2022/07/17 08:19:41;;;;;;;3.60;2.10;;;35.40;63.40;;;;;;5112848;28;20042;-60
2022/07/17 08:22:06;;;;;;;4.75;2.30;;;36.20;63.30;;;;;;5113437;28;20028;-59
2022/07/17 08:24:32;;;;;;;4.43;2.20;;;36.30;63.10;;;;;;5111325;28;20085;-59
2022/07/17 08:26:58;;;;;;;3.60;1.92;;;36.60;62.20;;;;;;5113265;28;20024;-59
2022/07/17 08:29:24;;;;;;;2.30;2.03;;;37.00;61.90;;;;;;5113694;28;20558;-59
2022/07/17 08:31:49;;;;;;;2.85;2.08;;;37.40;61.10;;;;;;5112984;28;20507;-59
2022/07/17 08:34:15;;;;;;;5.18;2.20;;;37.10;61.60;;;;;;5113221;28;20063;-59
2022/07/17 08:36:42;;;;;;;3.08;1.90;;;36.90;62.70;;;;;;5094275;28;20393;-60
2022/07/17 08:39:08;;;;;;;3.35;1.98;;;37.50;61.40;;;;;;5112416;28;20059;-58
2022/07/17 08:41:37;;;;;;;3.25;2.00;;;38.50;60.60;;;;;;5116360;27;20030;-59
2022/07/17 08:44:08;;;;;;;5.22;2.00;;;37.10;62.10;;;;;;5113152;28;20026;-59
2022/07/17 08:46:38;;;;;;;4.68;2.30;;;38.10;60.80;;;;;;5112753;28;20054;-59
2022/07/17 08:49:07;;;;;;;4.22;2.22;;;39.00;59.20;;;;;;5112885;28;20030;-58
2022/07/17 08:51:34;;;;;;;2.55;1.90;;;39.60;59.80;;;;;;5112663;28;20038;-60
2022/07/17 08:54:00;;;;;;;4.45;2.33;;;39.30;59.60;;;;;;5112830;28;20031;-60
2022/07/17 08:56:27;;;;;;;3.08;2.25;;;40.60;58.70;;;;;;5112386;28;20084;-60
2022/07/17 08:58:55;;;;;;;2.63;2.00;;;39.20;58.80;;;;;;5112682;28;20026;-59
2022/07/17 09:01:21;;;;;;;2.17;1.90;;;39.40;59.20;;;;;;5113002;28;20036;-59
2022/07/17 09:04:00;;;;;;;3.72;2.10;;;40.40;58.80;;;;;;5112236;28;20018;-59
2022/07/17 09:06:26;;;;;;;2.88;2.00;;;42.30;58.20;;;;;;5112358;28;20100;-59
2022/07/17 09:09:10;;;;;;;2.63;2.00;;;42.20;57.40;;;;;;5112512;28;20109;-59
2022/07/17 09:11:46;;;;;;;4.68;2.05;;;41.30;57.80;;;;;;5112159;28;20077;-60
2022/07/17 09:14:11;;;;;;;4.55;2.25;;;42.90;57.00;;;;;;5113939;28;20019;-59
2022/07/17 09:16:48;;;;;;;3.80;1.85;;;42.50;56.50;;;;;;5117695;27;20034;-59
2022/07/17 09:19:25;;;;;;;2.33;1.77;;;40.00;58.70;;;;;;5111444;28;20039;-59
2022/07/17 09:21:51;;;;;;;4.03;1.85;;;39.50;58.50;;;;;;5112850;28;20026;-59
2022/07/17 09:24:16;;;;;;;2.92;2.00;;;40.20;58.30;;;;;;5112217;28;20106;-59
2022/07/17 09:26:47;;;;;;;3.45;1.80;;;39.60;58.40;;;;;;5112834;28;20102;-59
2022/07/17 09:29:12;;;;;;;6.20;2.10;;;40.10;58.20;;;;;;5116891;27;20030;-60
2022/07/17 09:31:38;;;;;;;6.13;2.00;;;40.30;57.30;;;;;;5127545;27;20016;-60
2022/07/17 09:34:04;;;;;;;3.10;2.00;;;40.80;57.30;;;;;;5123549;27;20019;-59
2022/07/17 09:36:30;;;;;;;4.57;1.95;;;41.40;56.20;;;;;;5125356;27;20133;-60
2022/07/17 09:38:58;;;;;;;4.85;2.10;;;41.20;56.70;;;;;;5112043;28;20556;-59
2022/07/17 09:41:25;;;;;;;4.13;2.00;;;41.00;55.70;;;;;;5112950;27;20078;-60
2022/07/17 09:43:57;;;;;;;3.72;2.20;;;39.50;56.50;;;;;;5122360;27;20022;-60
2022/07/17 09:46:27;;;;;;;3.55;1.92;;;39.00;58.60;;;;;;5125507;27;20398;-60
2022/07/17 09:48:58;;;;;;;2.72;1.80;;;38.30;58.80;;;;;;5125917;27;20044;-60
2022/07/17 09:51:29;;;;;;;2.63;2.00;;;37.50;59.60;;;;;;5125142;27;20102;-60
2022/07/17 09:54:03;;;;;;;2.20;1.92;;;36.60;61.00;;;;;;5117211;27;20442;-60
2022/07/17 09:56:32;;;;;;;3.88;1.95;;;36.90;61.60;;;;;;5112000;28;20032;-60
2022/07/17 09:59:07;;;;;;;4.00;2.00;;;37.30;60.30;;;;;;5116222;27;20032;-60
2022/07/17 10:01:34;;;;;;;3.47;2.05;;;37.80;60.10;;;;;;5110092;28;20096;-60
2022/07/17 10:04:01;;;;;;;2.38;1.70;;;37.20;59.50;;;;;;5111647;28;20110;-60
2022/07/17 10:06:28;;;;;;;4.70;1.90;;;37.60;59.10;;;;;;5111491;28;20019;-59
2022/07/17 10:08:54;;;;;;;3.30;1.88;;;36.10;61.10;;;;;;5111587;28;20107;-59
2022/07/17 10:11:22;;;;;;;4.22;2.00;;;37.10;59.70;;;;;;5112789;28;20034;-61
2022/07/17 10:13:49;;;;;;;3.70;2.00;;;36.50;59.60;;;;;;5118777;28;20028;-60
2022/07/17 10:16:24;;;;;;;3.67;2.00;;;35.50;61.20;;;;;;5113264;28;20015;-60
2022/07/17 10:18:52;;;;;;;2.85;1.90;;;36.20;59.90;;;;;;5109977;28;20024;-59
2022/07/17 10:21:19;;;;;;;4.82;1.90;;;36.00;59.60;;;;;;5118272;28;20484;-59
2022/07/17 10:23:53;;;;;;;4.32;1.88;;;35.60;61.60;;;;;;5119379;28;20027;-60
2022/07/17 10:26:40;;;;;;;11.52;2.10;;;35.30;60.00;;;;;;5115258;27;20032;-61
2022/07/17 10:29:25;;;;;;;3.72;1.85;;;34.70;62.80;;;;;;5115347;28;20035;-69
2022/07/17 10:31:51;;;;;;;7.07;2.10;;;35.50;61.10;;;;;;5086272;28;20059;-62
2022/07/17 10:34:18;;;;;;;4.28;1.70;;;36.10;60.30;;;;;;5095683;28;20020;-62
2022/07/17 10:36:44;;;;;;;3.60;1.65;;;37.20;59.20;;;;;;5096180;28;20063;-63
2022/07/17 10:39:11;;;;;;;3.95;2.30;;;37.00;58.60;;;;;;5115584;28;20384;-63
2022/07/17 10:41:38;;;;;;;5.05;1.80;;;36.90;58.70;;;;;;5115999;28;20110;-62
2022/07/17 10:44:04;;;;;;;3.58;1.73;;;35.60;59.60;;;;;;5116124;28;20028;-63
2022/07/17 10:46:30;;;;;;;2.15;1.70;;;36.50;58.60;;;;;;5115739;28;20084;-63
2022/07/17 10:48:56;;;;;;;3.70;1.98;;;36.60;58.90;;;;;;5116405;28;20020;-63
2022/07/17 10:51:26;;;;;;;3.53;1.88;;;36.10;59.70;;;;;;5116185;28;20031;-63
2022/07/17 10:53:58;;;;;;;3.15;1.67;;;36.40;58.70;;;;;;5116005;28;20031;-63
2022/07/17 10:56:24;;;;;;;2.03;1.83;;;35.80;57.40;;;;;;5115789;28;20496;-63
2022/07/17 10:58:51;;;;;;;2.72;1.73;;;36.90;57.80;;;;;;5116019;28;20026;-63
2022/07/17 11:01:19;;;;;;;1.77;1.65;;;36.80;57.00;;;;;;5097279;28;20369;-63
2022/07/17 11:03:54;;;;;;;2.17;1.98;;;36.90;57.40;;;;;;5115778;28;20070;-63
2022/07/17 11:06:23;;;;;;;2.33;1.75;;;35.70;56.60;;;;;;5115757;28;20373;-63
2022/07/17 11:08:54;;;;;;;2.75;1.90;;;35.70;58.10;;;;;;5115622;28;20054;-63
2022/07/17 11:11:22;;;;;;;5.50;2.00;;;36.50;57.50;;;;;;5115647;28;20236;-63
2022/07/17 11:13:49;;;;;;;4.57;1.67;;;36.10;58.20;;;;;;5115997;28;20388;-63
2022/07/17 11:16:26;;;;;;;3.92;1.90;;;36.90;56.60;;;;;;5115063;28;20027;-63
2022/07/17 11:18:51;;;;;;;2.55;1.90;;;35.40;58.70;;;;;;5115703;28;20039;-63
2022/07/17 11:21:18;;;;;;;2.85;1.98;;;35.80;57.70;;;;;;5115415;28;20031;-63
2022/07/17 11:23:52;;;;;;;3.05;1.90;;;35.10;57.10;;;;;;5115479;28;20054;-63
2022/07/17 11:26:20;;;;;;;4.55;1.80;;;35.70;58.70;;;;;;5115274;28;20024;-63
2022/07/17 11:28:48;;;;;;;2.08;1.75;;;35.80;58.60;;;;;;5115158;28;20034;-62
2022/07/17 11:31:20;;;;;;;1.70;1.60;;;35.80;57.30;;;;;;5115406;28;20027;-63
2022/07/17 11:33:51;;;;;;;1.88;1.70;;;35.60;58.50;;;;;;5096879;28;20042;-63
2022/07/17 11:36:21;;;;;;;2.70;1.90;;;36.40;57.20;;;;;;5115366;28;20126;-63
2022/07/17 11:38:47;;;;;;;4.53;1.60;;;36.20;55.80;;;;;;5113973;28;20121;-63
2022/07/17 11:41:15;;;;;;;2.33;1.85;;;36.00;57.10;;;;;;5115013;28;20094;-63
2022/07/17 11:43:41;;;;;;;2.33;1.77;;;36.80;55.80;;;;;;5114632;28;20039;-63
2022/07/17 11:46:08;;;;;;;4.38;1.90;;;36.40;56.70;;;;;;5114958;28;20030;-63
2022/07/17 11:48:34;;;;;;;3.60;1.80;;;36.60;57.50;;;;;;5114899;28;20023;-63
2022/07/17 11:50:59;;;;;;;3.88;1.80;;;36.40;58.00;;;;;;5114927;28;20034;-63
2022/07/17 11:53:36;;;;;;;2.33;1.80;;;36.20;57.90;;;;;;5115355;28;20027;-63
2022/07/17 11:56:03;;;;;;;1.92;1.70;;;36.10;54.70;;;;;;5114666;28;20179;-62
2022/07/17 11:58:39;;;;;;;3.67;2.05;;;36.40;55.70;;;;;;5114275;28;20484;-63
2022/07/17 12:01:05;;;;;;;4.10;1.73;;;36.40;54.80;;;;;;5114665;28;20453;-62
2022/07/17 12:03:31;;;;;;;2.35;1.70;;;36.80;55.50;;;;;;5115127;28;20027;-63
2022/07/17 12:05:57;;;;;;;1.70;1.60;;;36.00;56.00;;;;;;5114646;28;20060;-63
2022/07/17 12:08:23;;;;;;;2.25;1.98;;;36.80;55.00;;;;;;5114414;28;20111;-62
2022/07/17 12:11:12;;;;;;;3.17;2.30;;;37.00;55.10;;;;;;5114789;28;20102;-63
2022/07/17 12:13:43;;;;;;;2.28;1.80;;;36.80;53.50;;;;;;5114055;28;20031;-62
2022/07/17 12:16:28;;;;;;;3.35;1.73;;;37.20;53.30;;;;;;5115098;28;20040;-63
2022/07/17 12:18:56;;;;;;;2.80;1.60;;;36.80;53.70;;;;;;5114340;28;20032;-63
2022/07/17 12:21:22;;;;;;;1.85;1.70;;;36.70;53.40;;;;;;5114311;28;20111;-62
2022/07/17 12:23:57;;;;;;;1.70;1.60;;;35.70;55.60;;;;;;5114250;28;20522;-62
2022/07/17 12:26:23;;;;;;;5.63;1.73;;;36.10;54.50;;;;;;5114295;28;20031;-62
2022/07/17 12:28:48;;;;;;;3.45;1.80;;;35.20;56.40;;;;;;5113697;28;20378;-62
2022/07/17 12:31:15;;;;;;;2.13;1.70;;;35.10;54.60;;;;;;5114219;28;20032;-62
2022/07/17 12:33:41;;;;;;;1.95;1.80;;;35.60;55.00;;;;;;5114369;28;20028;-62
2022/07/17 12:36:07;;;;;;;6.60;1.85;;;35.00;56.70;;;;;;5113819;28;20051;-63
2022/07/17 12:38:33;;;;;;;2.15;1.80;;;36.50;52.50;;;;;;5113697;28;20133;-63
2022/07/17 12:40:59;;;;;;;3.95;3.45;;;36.80;51.00;;;;;;5114362;28;20051;-63
2022/07/17 12:43:25;;;;;;;2.20;1.98;;;36.70;51.30;;;;;;5113482;28;20019;-63